Kezdőlap
METAR-TAF:

METAR-TAF

Repülőterek :

Maiduguri, Nigéria

földrajzi szélesség: 11-51N, földrajzi hosszúság: 013-05E, magasság: 354 m

METAR: hiányzik

Idő: 00:13 (23:13 UTC)

Előrejelzés

A jelentés 18 órával és 13 perccel ezelõtt készült, 05:00 UTC
Az előrejelzés 19-én 06 óra UTC és 20-én 12 óra UTC között érvényes
Délnyugati szél 9 kt
Látótávolság 10 km, vagy több
felhőtlen 1500 m magasságban, és nincs gomolyfelhõ

TAF: DNMA 190500Z 1906/2012 22009KT CAVOK

Meteorológiai megfigyelések és előrejelzések több, mint 4000 repülőtéren (METAR és TAF jelentéseket).

A térképen piros és sárga pontok jelzik az elérhető meteorológiai állomásokat.

Mozgassa az egeret a pont fölött, hogy megjelenjen az állomás neve.

Azután kattintson az időjárási megfigyelések és előrejelzések megtekintéséhez.

A térkép megváltoztatása: kattintson a fekete keresztel jelölt zöld gombra ráközelítéshez, a vonallal jelölt zöld gombra távolításhoz, vagy a zöld nyilakra a szomszédos térképek eléréséhez.


METAR-TAF: